sensor_id;sensor_type;location;lat;lon;timestamp;P1;durP1;ratioP1;P2;durP2;ratioP2
757;SDS011;363;48.764;9.172;2023-04-15T00:01:59;6.07;;;3.70;;
757;SDS011;363;48.764;9.172;2023-04-15T00:04:24;4.33;;;3.73;;
757;SDS011;363;48.764;9.172;2023-04-15T00:06:51;5.38;;;4.10;;
757;SDS011;363;48.764;9.172;2023-04-15T00:09:18;4.53;;;4.13;;
757;SDS011;363;48.764;9.172;2023-04-15T00:11:44;5.97;;;4.35;;
757;SDS011;363;48.764;9.172;2023-04-15T00:14:11;4.68;;;3.70;;
757;SDS011;363;48.764;9.172;2023-04-15T00:16:37;4.38;;;3.33;;
757;SDS011;363;48.764;9.172;2023-04-15T00:19:03;4.90;;;3.67;;
757;SDS011;363;48.764;9.172;2023-04-15T00:21:29;8.50;;;4.20;;
757;SDS011;363;48.764;9.172;2023-04-15T00:23:55;8.98;;;3.83;;
757;SDS011;363;48.764;9.172;2023-04-15T00:26:21;4.00;;;3.60;;
757;SDS011;363;48.764;9.172;2023-04-15T00:28:47;4.33;;;3.30;;
757;SDS011;363;48.764;9.172;2023-04-15T00:31:12;6.23;;;4.20;;
757;SDS011;363;48.764;9.172;2023-04-15T00:33:39;4.75;;;3.75;;
757;SDS011;363;48.764;9.172;2023-04-15T00:36:05;4.97;;;4.47;;
757;SDS011;363;48.764;9.172;2023-04-15T00:38:32;7.05;;;4.00;;
757;SDS011;363;48.764;9.172;2023-04-15T00:40:58;4.70;;;3.67;;
757;SDS011;363;48.764;9.172;2023-04-15T00:43:24;5.73;;;3.97;;
757;SDS011;363;48.764;9.172;2023-04-15T00:45:50;6.80;;;3.72;;
757;SDS011;363;48.764;9.172;2023-04-15T00:48:18;4.10;;;3.70;;
757;SDS011;363;48.764;9.172;2023-04-15T00:50:45;4.25;;;3.42;;
757;SDS011;363;48.764;9.172;2023-04-15T00:53:10;4.83;;;3.30;;
757;SDS011;363;48.764;9.172;2023-04-15T00:55:36;6.90;;;4.03;;
757;SDS011;363;48.764;9.172;2023-04-15T00:58:02;5.07;;;3.50;;
757;SDS011;363;48.764;9.172;2023-04-15T01:00:27;5.43;;;3.37;;
757;SDS011;363;48.764;9.172;2023-04-15T01:02:54;4.53;;;3.95;;
757;SDS011;363;48.764;9.172;2023-04-15T01:05:20;6.17;;;4.17;;
757;SDS011;363;48.764;9.172;2023-04-15T01:07:46;5.40;;;3.93;;
757;SDS011;363;48.764;9.172;2023-04-15T01:10:12;6.60;;;3.85;;
757;SDS011;363;48.764;9.172;2023-04-15T01:12:38;10.63;;;4.20;;
757;SDS011;363;48.764;9.172;2023-04-15T01:15:04;5.68;;;4.50;;
757;SDS011;363;48.764;9.172;2023-04-15T01:17:30;4.93;;;4.43;;
757;SDS011;363;48.764;9.172;2023-04-15T01:19:56;5.32;;;4.15;;
757;SDS011;363;48.764;9.172;2023-04-15T01:22:22;7.10;;;4.27;;
757;SDS011;363;48.764;9.172;2023-04-15T01:24:53;4.90;;;4.15;;
757;SDS011;363;48.764;9.172;2023-04-15T01:27:21;4.82;;;4.05;;
757;SDS011;363;48.764;9.172;2023-04-15T01:29:47;5.27;;;3.30;;
757;SDS011;363;48.764;9.172;2023-04-15T01:32:13;5.07;;;3.30;;
757;SDS011;363;48.764;9.172;2023-04-15T01:34:38;4.57;;;3.77;;
757;SDS011;363;48.764;9.172;2023-04-15T01:37:04;5.03;;;3.40;;
757;SDS011;363;48.764;9.172;2023-04-15T01:39:30;8.80;;;3.90;;
757;SDS011;363;48.764;9.172;2023-04-15T01:41:55;8.33;;;3.70;;
757;SDS011;363;48.764;9.172;2023-04-15T01:44:21;5.10;;;4.10;;
757;SDS011;363;48.764;9.172;2023-04-15T01:46:47;4.90;;;3.50;;
757;SDS011;363;48.764;9.172;2023-04-15T01:49:13;6.93;;;3.63;;
757;SDS011;363;48.764;9.172;2023-04-15T01:51:38;5.77;;;3.80;;
757;SDS011;363;48.764;9.172;2023-04-15T01:54:04;5.90;;;3.93;;
757;SDS011;363;48.764;9.172;2023-04-15T01:56:30;6.30;;;3.80;;
757;SDS011;363;48.764;9.172;2023-04-15T01:58:56;6.20;;;3.93;;
757;SDS011;363;48.764;9.172;2023-04-15T02:01:21;4.87;;;3.63;;
757;SDS011;363;48.764;9.172;2023-04-15T02:03:47;3.80;;;3.30;;
757;SDS011;363;48.764;9.172;2023-04-15T02:06:12;6.40;;;3.90;;
757;SDS011;363;48.764;9.172;2023-04-15T02:08:38;9.77;;;3.60;;
757;SDS011;363;48.764;9.172;2023-04-15T02:11:04;4.90;;;3.27;;
757;SDS011;363;48.764;9.172;2023-04-15T02:13:29;4.00;;;3.43;;
757;SDS011;363;48.764;9.172;2023-04-15T02:15:55;4.70;;;3.60;;
757;SDS011;363;48.764;9.172;2023-04-15T02:18:21;3.88;;;3.45;;
757;SDS011;363;48.764;9.172;2023-04-15T02:20:47;3.43;;;3.13;;
757;SDS011;363;48.764;9.172;2023-04-15T02:23:12;6.13;;;3.10;;
757;SDS011;363;48.764;9.172;2023-04-15T02:25:38;4.40;;;3.40;;
757;SDS011;363;48.764;9.172;2023-04-15T02:28:04;4.50;;;4.10;;
757;SDS011;363;48.764;9.172;2023-04-15T02:30:30;5.85;;;3.55;;
757;SDS011;363;48.764;9.172;2023-04-15T02:32:57;3.63;;;3.33;;
757;SDS011;363;48.764;9.172;2023-04-15T02:35:23;5.70;;;4.30;;
757;SDS011;363;48.764;9.172;2023-04-15T02:37:49;5.72;;;3.70;;
757;SDS011;363;48.764;9.172;2023-04-15T02:40:15;5.20;;;3.50;;
757;SDS011;363;48.764;9.172;2023-04-15T02:42:41;4.17;;;3.50;;
757;SDS011;363;48.764;9.172;2023-04-15T02:45:08;4.07;;;3.55;;
757;SDS011;363;48.764;9.172;2023-04-15T02:47:34;5.15;;;4.38;;
757;SDS011;363;48.764;9.172;2023-04-15T02:50:03;5.73;;;3.73;;
757;SDS011;363;48.764;9.172;2023-04-15T02:52:29;5.47;;;3.75;;
757;SDS011;363;48.764;9.172;2023-04-15T02:54:55;5.00;;;3.70;;
757;SDS011;363;48.764;9.172;2023-04-15T02:57:25;3.50;;;3.20;;
757;SDS011;363;48.764;9.172;2023-04-15T02:59:52;5.30;;;3.63;;
757;SDS011;363;48.764;9.172;2023-04-15T03:02:18;3.67;;;3.23;;
757;SDS011;363;48.764;9.172;2023-04-15T03:04:43;6.60;;;4.20;;
757;SDS011;363;48.764;9.172;2023-04-15T03:07:09;4.30;;;3.90;;
757;SDS011;363;48.764;9.172;2023-04-15T03:09:34;5.07;;;3.90;;
757;SDS011;363;48.764;9.172;2023-04-15T03:12:01;3.93;;;3.20;;
757;SDS011;363;48.764;9.172;2023-04-15T03:14:27;3.72;;;3.42;;
757;SDS011;363;48.764;9.172;2023-04-15T03:16:52;4.43;;;3.70;;
757;SDS011;363;48.764;9.172;2023-04-15T03:19:18;6.87;;;3.80;;
757;SDS011;363;48.764;9.172;2023-04-15T03:21:44;4.47;;;2.97;;
757;SDS011;363;48.764;9.172;2023-04-15T03:24:09;4.87;;;3.47;;
757;SDS011;363;48.764;9.172;2023-04-15T03:26:35;6.10;;;3.60;;
757;SDS011;363;48.764;9.172;2023-04-15T03:29:00;5.03;;;3.30;;
757;SDS011;363;48.764;9.172;2023-04-15T03:31:26;6.33;;;3.30;;
757;SDS011;363;48.764;9.172;2023-04-15T03:33:52;3.50;;;3.20;;
757;SDS011;363;48.764;9.172;2023-04-15T03:36:17;5.13;;;3.00;;
757;SDS011;363;48.764;9.172;2023-04-15T03:38:43;5.27;;;2.93;;
757;SDS011;363;48.764;9.172;2023-04-15T03:41:09;4.87;;;3.43;;
757;SDS011;363;48.764;9.172;2023-04-15T03:43:34;5.43;;;3.20;;
757;SDS011;363;48.764;9.172;2023-04-15T03:46:00;4.50;;;3.73;;
757;SDS011;363;48.764;9.172;2023-04-15T03:48:26;3.47;;;3.17;;
757;SDS011;363;48.764;9.172;2023-04-15T03:50:52;4.93;;;3.80;;
757;SDS011;363;48.764;9.172;2023-04-15T03:53:18;3.60;;;3.30;;
757;SDS011;363;48.764;9.172;2023-04-15T03:55:46;3.95;;;2.78;;
757;SDS011;363;48.764;9.172;2023-04-15T03:58:11;3.57;;;3.27;;
757;SDS011;363;48.764;9.172;2023-04-15T04:00:38;3.73;;;3.10;;
757;SDS011;363;48.764;9.172;2023-04-15T04:03:04;4.07;;;3.10;;
757;SDS011;363;48.764;9.172;2023-04-15T04:05:30;4.47;;;3.25;;
757;SDS011;363;48.764;9.172;2023-04-15T04:07:55;4.77;;;3.47;;
757;SDS011;363;48.764;9.172;2023-04-15T04:10:21;3.70;;;2.90;;
757;SDS011;363;48.764;9.172;2023-04-15T04:12:47;4.20;;;2.70;;
757;SDS011;363;48.764;9.172;2023-04-15T04:15:12;7.10;;;3.20;;
757;SDS011;363;48.764;9.172;2023-04-15T04:17:38;6.40;;;3.20;;
757;SDS011;363;48.764;9.172;2023-04-15T04:20:04;3.50;;;3.00;;
757;SDS011;363;48.764;9.172;2023-04-15T04:22:30;5.38;;;3.15;;
757;SDS011;363;48.764;9.172;2023-04-15T04:25:01;4.63;;;3.47;;
757;SDS011;363;48.764;9.172;2023-04-15T04:27:26;4.90;;;3.40;;
757;SDS011;363;48.764;9.172;2023-04-15T04:29:52;4.20;;;3.20;;
757;SDS011;363;48.764;9.172;2023-04-15T04:32:18;4.67;;;3.30;;
757;SDS011;363;48.764;9.172;2023-04-15T04:34:43;6.93;;;3.43;;
757;SDS011;363;48.764;9.172;2023-04-15T04:37:09;5.50;;;3.30;;
757;SDS011;363;48.764;9.172;2023-04-15T04:39:35;3.90;;;3.50;;
757;SDS011;363;48.764;9.172;2023-04-15T04:42:00;5.07;;;3.20;;
757;SDS011;363;48.764;9.172;2023-04-15T04:44:26;3.83;;;3.10;;
757;SDS011;363;48.764;9.172;2023-04-15T04:46:51;5.07;;;3.50;;
757;SDS011;363;48.764;9.172;2023-04-15T04:49:17;6.63;;;3.53;;
757;SDS011;363;48.764;9.172;2023-04-15T04:51:43;4.50;;;3.43;;
757;SDS011;363;48.764;9.172;2023-04-15T04:54:08;5.13;;;2.83;;
757;SDS011;363;48.764;9.172;2023-04-15T04:56:34;4.33;;;3.03;;
757;SDS011;363;48.764;9.172;2023-04-15T04:59:00;5.73;;;3.33;;
757;SDS011;363;48.764;9.172;2023-04-15T05:01:25;3.77;;;3.20;;
757;SDS011;363;48.764;9.172;2023-04-15T05:03:51;3.27;;;2.73;;
757;SDS011;363;48.764;9.172;2023-04-15T05:06:17;4.90;;;3.13;;
757;SDS011;363;48.764;9.172;2023-04-15T05:08:42;6.23;;;3.70;;
757;SDS011;363;48.764;9.172;2023-04-15T05:11:08;5.88;;;4.38;;
757;SDS011;363;48.764;9.172;2023-04-15T05:13:34;6.40;;;3.40;;
757;SDS011;363;48.764;9.172;2023-04-15T05:16:02;7.50;;;3.30;;
757;SDS011;363;48.764;9.172;2023-04-15T05:18:29;4.00;;;3.30;;
757;SDS011;363;48.764;9.172;2023-04-15T05:20:55;5.80;;;3.27;;
757;SDS011;363;48.764;9.172;2023-04-15T05:23:20;3.33;;;3.10;;
757;SDS011;363;48.764;9.172;2023-04-15T05:25:46;4.30;;;3.10;;
757;SDS011;363;48.764;9.172;2023-04-15T05:28:12;7.80;;;3.30;;
757;SDS011;363;48.764;9.172;2023-04-15T05:30:37;3.80;;;3.20;;
757;SDS011;363;48.764;9.172;2023-04-15T05:33:03;4.00;;;3.60;;
757;SDS011;363;48.764;9.172;2023-04-15T05:35:29;4.57;;;3.00;;
757;SDS011;363;48.764;9.172;2023-04-15T05:37:55;4.50;;;2.90;;
757;SDS011;363;48.764;9.172;2023-04-15T05:40:21;3.70;;;2.90;;
757;SDS011;363;48.764;9.172;2023-04-15T05:42:46;6.03;;;3.30;;
757;SDS011;363;48.764;9.172;2023-04-15T05:45:12;3.50;;;3.20;;
757;SDS011;363;48.764;9.172;2023-04-15T05:47:38;6.63;;;3.50;;
757;SDS011;363;48.764;9.172;2023-04-15T05:50:04;5.27;;;4.13;;
757;SDS011;363;48.764;9.172;2023-04-15T05:52:30;4.93;;;4.18;;
757;SDS011;363;48.764;9.172;2023-04-15T05:54:56;3.43;;;3.10;;
757;SDS011;363;48.764;9.172;2023-04-15T05:57:22;4.37;;;3.63;;
757;SDS011;363;48.764;9.172;2023-04-15T05:59:48;6.20;;;3.90;;
757;SDS011;363;48.764;9.172;2023-04-15T06:02:16;4.30;;;3.60;;
757;SDS011;363;48.764;9.172;2023-04-15T06:04:41;3.83;;;3.37;;
757;SDS011;363;48.764;9.172;2023-04-15T06:07:07;6.33;;;4.37;;
757;SDS011;363;48.764;9.172;2023-04-15T06:09:33;5.30;;;3.77;;
757;SDS011;363;48.764;9.172;2023-04-15T06:12:00;7.40;;;4.40;;
757;SDS011;363;48.764;9.172;2023-04-15T06:14:26;4.85;;;4.05;;
757;SDS011;363;48.764;9.172;2023-04-15T06:16:51;6.07;;;3.83;;
757;SDS011;363;48.764;9.172;2023-04-15T06:19:17;5.83;;;4.00;;
757;SDS011;363;48.764;9.172;2023-04-15T06:21:43;5.17;;;3.70;;
757;SDS011;363;48.764;9.172;2023-04-15T06:24:09;6.57;;;4.32;;
757;SDS011;363;48.764;9.172;2023-04-15T06:26:36;4.18;;;3.78;;
757;SDS011;363;48.764;9.172;2023-04-15T06:29:01;5.93;;;4.70;;
757;SDS011;363;48.764;9.172;2023-04-15T06:31:27;14.57;;;9.50;;
757;SDS011;363;48.764;9.172;2023-04-15T06:33:53;6.50;;;4.20;;
757;SDS011;363;48.764;9.172;2023-04-15T06:36:18;3.80;;;3.30;;
757;SDS011;363;48.764;9.172;2023-04-15T06:38:44;5.37;;;4.00;;
757;SDS011;363;48.764;9.172;2023-04-15T06:41:10;8.50;;;4.50;;
757;SDS011;363;48.764;9.172;2023-04-15T06:43:36;6.67;;;3.80;;
757;SDS011;363;48.764;9.172;2023-04-15T06:46:01;4.90;;;4.15;;
757;SDS011;363;48.764;9.172;2023-04-15T06:48:27;7.00;;;4.47;;
757;SDS011;363;48.764;9.172;2023-04-15T06:50:52;8.43;;;4.03;;
757;SDS011;363;48.764;9.172;2023-04-15T06:53:19;4.82;;;4.32;;
757;SDS011;363;48.764;9.172;2023-04-15T06:55:44;5.83;;;4.20;;
757;SDS011;363;48.764;9.172;2023-04-15T06:58:10;5.37;;;4.83;;
757;SDS011;363;48.764;9.172;2023-04-15T07:00:35;5.10;;;4.60;;
757;SDS011;363;48.764;9.172;2023-04-15T07:03:03;6.40;;;5.68;;
757;SDS011;363;48.764;9.172;2023-04-15T07:05:29;6.15;;;5.35;;
757;SDS011;363;48.764;9.172;2023-04-15T07:07:56;9.15;;;5.10;;
757;SDS011;363;48.764;9.172;2023-04-15T07:10:22;7.00;;;4.73;;
757;SDS011;363;48.764;9.172;2023-04-15T07:12:48;6.60;;;5.63;;
757;SDS011;363;48.764;9.172;2023-04-15T07:15:14;6.47;;;5.70;;
757;SDS011;363;48.764;9.172;2023-04-15T07:17:40;5.37;;;4.43;;
757;SDS011;363;48.764;9.172;2023-04-15T07:20:07;6.73;;;5.73;;
757;SDS011;363;48.764;9.172;2023-04-15T07:22:33;5.77;;;5.17;;
757;SDS011;363;48.764;9.172;2023-04-15T07:24:59;6.13;;;5.53;;
757;SDS011;363;48.764;9.172;2023-04-15T07:27:25;6.67;;;5.17;;
757;SDS011;363;48.764;9.172;2023-04-15T07:29:51;5.93;;;5.33;;
757;SDS011;363;48.764;9.172;2023-04-15T07:32:17;5.33;;;4.60;;
757;SDS011;363;48.764;9.172;2023-04-15T07:34:43;6.40;;;5.80;;
757;SDS011;363;48.764;9.172;2023-04-15T07:37:08;7.63;;;4.90;;
757;SDS011;363;48.764;9.172;2023-04-15T07:39:34;6.50;;;5.20;;
757;SDS011;363;48.764;9.172;2023-04-15T07:42:01;6.03;;;4.83;;
757;SDS011;363;48.764;9.172;2023-04-15T07:44:28;8.03;;;4.97;;
757;SDS011;363;48.764;9.172;2023-04-15T07:46:54;6.13;;;4.67;;
757;SDS011;363;48.764;9.172;2023-04-15T07:49:20;6.35;;;5.13;;
757;SDS011;363;48.764;9.172;2023-04-15T07:51:46;6.57;;;5.87;;
757;SDS011;363;48.764;9.172;2023-04-15T07:54:12;9.70;;;6.45;;
757;SDS011;363;48.764;9.172;2023-04-15T07:56:38;8.63;;;5.70;;
757;SDS011;363;48.764;9.172;2023-04-15T07:59:04;7.00;;;5.50;;
757;SDS011;363;48.764;9.172;2023-04-15T08:01:30;5.50;;;4.80;;
757;SDS011;363;48.764;9.172;2023-04-15T08:03:57;5.60;;;4.50;;
757;SDS011;363;48.764;9.172;2023-04-15T08:06:23;6.32;;;4.50;;
757;SDS011;363;48.764;9.172;2023-04-15T08:08:49;5.10;;;3.87;;
757;SDS011;363;48.764;9.172;2023-04-15T08:11:14;4.80;;;4.40;;
757;SDS011;363;48.764;9.172;2023-04-15T08:13:41;5.68;;;5.07;;
757;SDS011;363;48.764;9.172;2023-04-15T08:16:17;7.27;;;4.97;;
757;SDS011;363;48.764;9.172;2023-04-15T08:18:51;7.45;;;5.47;;
757;SDS011;363;48.764;9.172;2023-04-15T08:21:18;5.60;;;5.00;;
757;SDS011;363;48.764;9.172;2023-04-15T08:23:45;7.30;;;4.63;;
757;SDS011;363;48.764;9.172;2023-04-15T08:26:11;4.82;;;4.00;;
757;SDS011;363;48.764;9.172;2023-04-15T08:28:37;4.30;;;3.90;;
757;SDS011;363;48.764;9.172;2023-04-15T08:31:04;6.80;;;4.50;;
757;SDS011;363;48.764;9.172;2023-04-15T08:33:30;7.73;;;4.90;;
757;SDS011;363;48.764;9.172;2023-04-15T08:35:56;5.63;;;4.70;;
757;SDS011;363;48.764;9.172;2023-04-15T08:38:25;5.67;;;5.13;;
757;SDS011;363;48.764;9.172;2023-04-15T08:40:50;5.07;;;4.60;;
757;SDS011;363;48.764;9.172;2023-04-15T08:43:20;5.80;;;4.00;;
757;SDS011;363;48.764;9.172;2023-04-15T08:45:52;5.37;;;4.50;;
757;SDS011;363;48.764;9.172;2023-04-15T08:48:19;4.10;;;3.67;;
757;SDS011;363;48.764;9.172;2023-04-15T08:50:45;5.17;;;4.20;;
757;SDS011;363;48.764;9.172;2023-04-15T08:53:13;4.73;;;4.17;;
757;SDS011;363;48.764;9.172;2023-04-15T08:55:43;6.67;;;4.00;;
757;SDS011;363;48.764;9.172;2023-04-15T08:58:10;4.53;;;4.13;;
757;SDS011;363;48.764;9.172;2023-04-15T09:00:37;5.73;;;4.23;;
757;SDS011;363;48.764;9.172;2023-04-15T09:03:03;7.10;;;5.50;;
757;SDS011;363;48.764;9.172;2023-04-15T09:05:34;8.47;;;3.50;;
757;SDS011;363;48.764;9.172;2023-04-15T09:08:00;6.10;;;4.30;;
757;SDS011;363;48.764;9.172;2023-04-15T09:10:27;4.90;;;3.47;;
757;SDS011;363;48.764;9.172;2023-04-15T09:12:54;4.17;;;3.80;;
757;SDS011;363;48.764;9.172;2023-04-15T09:15:20;5.70;;;3.50;;
757;SDS011;363;48.764;9.172;2023-04-15T09:17:48;4.43;;;3.50;;
757;SDS011;363;48.764;9.172;2023-04-15T09:20:14;4.13;;;3.00;;
757;SDS011;363;48.764;9.172;2023-04-15T09:22:43;4.13;;;3.00;;
757;SDS011;363;48.764;9.172;2023-04-15T09:27:55;3.97;;;3.57;;
757;SDS011;363;48.764;9.172;2023-04-15T09:30:23;4.13;;;3.60;;
757;SDS011;363;48.764;9.172;2023-04-15T09:32:49;4.50;;;4.03;;
757;SDS011;363;48.764;9.172;2023-04-15T09:35:16;4.47;;;3.67;;
757;SDS011;363;48.764;9.172;2023-04-15T09:37:42;8.43;;;3.50;;
757;SDS011;363;48.764;9.172;2023-04-15T09:40:07;4.67;;;4.17;;
757;SDS011;363;48.764;9.172;2023-04-15T09:42:34;4.10;;;2.87;;
757;SDS011;363;48.764;9.172;2023-04-15T09:45:07;3.73;;;3.03;;
757;SDS011;363;48.764;9.172;2023-04-15T09:47:35;5.00;;;2.63;;
757;SDS011;363;48.764;9.172;2023-04-15T09:50:01;3.23;;;2.97;;
757;SDS011;363;48.764;9.172;2023-04-15T09:52:27;3.57;;;3.00;;
757;SDS011;363;48.764;9.172;2023-04-15T09:54:53;4.43;;;3.20;;
757;SDS011;363;48.764;9.172;2023-04-15T09:57:21;3.03;;;2.33;;
757;SDS011;363;48.764;9.172;2023-04-15T09:59:47;5.20;;;3.00;;
757;SDS011;363;48.764;9.172;2023-04-15T10:02:13;5.27;;;2.83;;
757;SDS011;363;48.764;9.172;2023-04-15T10:04:42;4.30;;;3.65;;
757;SDS011;363;48.764;9.172;2023-04-15T10:07:10;4.18;;;2.65;;
757;SDS011;363;48.764;9.172;2023-04-15T10:09:39;4.88;;;3.40;;
757;SDS011;363;48.764;9.172;2023-04-15T10:12:06;8.35;;;2.70;;
757;SDS011;363;48.764;9.172;2023-04-15T10:14:35;4.75;;;3.13;;
757;SDS011;363;48.764;9.172;2023-04-15T10:17:03;4.57;;;2.90;;
757;SDS011;363;48.764;9.172;2023-04-15T10:19:30;4.30;;;2.88;;
757;SDS011;363;48.764;9.172;2023-04-15T10:21:58;5.78;;;2.60;;
757;SDS011;363;48.764;9.172;2023-04-15T10:24:24;4.37;;;2.80;;
757;SDS011;363;48.764;9.172;2023-04-15T10:26:50;3.47;;;2.57;;
757;SDS011;363;48.764;9.172;2023-04-15T10:29:16;3.58;;;2.72;;
757;SDS011;363;48.764;9.172;2023-04-15T10:31:42;3.23;;;2.93;;
757;SDS011;363;48.764;9.172;2023-04-15T10:34:08;3.80;;;2.40;;
757;SDS011;363;48.764;9.172;2023-04-15T10:36:35;4.13;;;3.20;;
757;SDS011;363;48.764;9.172;2023-04-15T10:39:01;3.30;;;3.00;;
757;SDS011;363;48.764;9.172;2023-04-15T10:41:30;4.32;;;3.92;;
757;SDS011;363;48.764;9.172;2023-04-15T10:51:40;4.28;;;3.28;;
757;SDS011;363;48.764;9.172;2023-04-15T10:54:17;13.50;;;3.70;;
757;SDS011;363;48.764;9.172;2023-04-15T10:59:30;4.40;;;3.33;;
757;SDS011;363;48.764;9.172;2023-04-15T11:02:00;4.70;;;3.03;;
757;SDS011;363;48.764;9.172;2023-04-15T11:13:01;4.38;;;3.38;;
757;SDS011;363;48.764;9.172;2023-04-15T11:15:29;4.22;;;3.47;;
757;SDS011;363;48.764;9.172;2023-04-15T11:17:56;2.90;;;2.70;;
757;SDS011;363;48.764;9.172;2023-04-15T11:20:22;4.18;;;3.45;;
757;SDS011;363;48.764;9.172;2023-04-15T11:22:54;3.55;;;3.28;;
757;SDS011;363;48.764;9.172;2023-04-15T11:27:49;3.45;;;3.15;;
757;SDS011;363;48.764;9.172;2023-04-15T11:30:20;4.25;;;3.85;;
757;SDS011;363;48.764;9.172;2023-04-15T11:32:52;4.22;;;3.00;;
757;SDS011;363;48.764;9.172;2023-04-15T11:35:22;4.00;;;3.60;;
757;SDS011;363;48.764;9.172;2023-04-15T11:37:47;3.47;;;2.90;;
757;SDS011;363;48.764;9.172;2023-04-15T11:40:14;3.03;;;2.80;;
757;SDS011;363;48.764;9.172;2023-04-15T11:42:42;3.55;;;3.22;;
757;SDS011;363;48.764;9.172;2023-04-15T11:45:09;4.70;;;3.47;;
757;SDS011;363;48.764;9.172;2023-04-15T11:47:36;5.38;;;3.60;;
757;SDS011;363;48.764;9.172;2023-04-15T11:50:18;3.70;;;3.35;;
757;SDS011;363;48.764;9.172;2023-04-15T11:52:52;5.05;;;3.80;;
757;SDS011;363;48.764;9.172;2023-04-15T11:55:22;5.13;;;3.90;;
757;SDS011;363;48.764;9.172;2023-04-15T11:57:49;4.50;;;4.10;;
757;SDS011;363;48.764;9.172;2023-04-15T12:00:29;6.82;;;4.60;;
757;SDS011;363;48.764;9.172;2023-04-15T12:03:16;4.70;;;3.43;;
757;SDS011;363;48.764;9.172;2023-04-15T12:13:55;5.18;;;4.07;;
757;SDS011;363;48.764;9.172;2023-04-15T12:16:21;3.78;;;3.47;;
757;SDS011;363;48.764;9.172;2023-04-15T12:18:55;4.53;;;3.88;;
757;SDS011;363;48.764;9.172;2023-04-15T12:21:23;4.00;;;3.60;;
757;SDS011;363;48.764;9.172;2023-04-15T12:23:56;5.50;;;3.80;;
757;SDS011;363;48.764;9.172;2023-04-15T12:27:05;4.05;;;3.75;;
757;SDS011;363;48.764;9.172;2023-04-15T12:29:15;4.95;;;3.88;;
757;SDS011;363;48.764;9.172;2023-04-15T12:31:52;3.53;;;3.22;;
757;SDS011;363;48.764;9.172;2023-04-15T12:34:25;4.00;;;3.25;;
757;SDS011;363;48.764;9.172;2023-04-15T12:37:00;3.45;;;3.15;;
757;SDS011;363;48.764;9.172;2023-04-15T12:39:28;5.55;;;3.40;;
757;SDS011;363;48.764;9.172;2023-04-15T12:41:56;3.67;;;3.38;;
757;SDS011;363;48.764;9.172;2023-04-15T12:44:24;3.90;;;3.47;;
757;SDS011;363;48.764;9.172;2023-04-15T12:46:50;7.10;;;4.03;;
757;SDS011;363;48.764;9.172;2023-04-15T12:49:17;14.38;;;4.05;;
757;SDS011;363;48.764;9.172;2023-04-15T12:51:44;6.95;;;6.22;;
757;SDS011;363;48.764;9.172;2023-04-15T12:54:12;3.72;;;3.42;;
757;SDS011;363;48.764;9.172;2023-04-15T12:56:38;4.13;;;3.73;;
757;SDS011;363;48.764;9.172;2023-04-15T12:59:03;4.53;;;3.83;;
757;SDS011;363;48.764;9.172;2023-04-15T13:01:29;4.00;;;3.27;;
757;SDS011;363;48.764;9.172;2023-04-15T13:03:55;3.60;;;3.30;;
757;SDS011;363;48.764;9.172;2023-04-15T13:06:21;5.10;;;4.23;;
757;SDS011;363;48.764;9.172;2023-04-15T13:08:48;3.92;;;3.63;;
757;SDS011;363;48.764;9.172;2023-04-15T13:11:13;5.23;;;3.37;;
757;SDS011;363;48.764;9.172;2023-04-15T13:13:39;4.27;;;3.13;;
757;SDS011;363;48.764;9.172;2023-04-15T13:16:04;3.80;;;3.30;;
757;SDS011;363;48.764;9.172;2023-04-15T13:18:33;4.15;;;3.13;;
757;SDS011;363;48.764;9.172;2023-04-15T13:20:59;6.20;;;3.10;;
757;SDS011;363;48.764;9.172;2023-04-15T13:23:28;3.10;;;2.80;;
757;SDS011;363;48.764;9.172;2023-04-15T13:25:53;3.27;;;2.77;;
757;SDS011;363;48.764;9.172;2023-04-15T13:28:19;3.07;;;2.80;;
757;SDS011;363;48.764;9.172;2023-04-15T13:30:45;3.40;;;3.10;;
757;SDS011;363;48.764;9.172;2023-04-15T13:33:12;3.80;;;2.83;;
757;SDS011;363;48.764;9.172;2023-04-15T13:35:38;4.20;;;3.17;;
757;SDS011;363;48.764;9.172;2023-04-15T13:38:04;4.67;;;3.50;;
757;SDS011;363;48.764;9.172;2023-04-15T13:40:29;5.20;;;3.30;;
757;SDS011;363;48.764;9.172;2023-04-15T13:42:55;6.20;;;2.90;;
757;SDS011;363;48.764;9.172;2023-04-15T13:45:22;5.15;;;2.75;;
757;SDS011;363;48.764;9.172;2023-04-15T13:47:48;2.20;;;2.00;;
757;SDS011;363;48.764;9.172;2023-04-15T13:50:13;4.30;;;2.30;;
757;SDS011;363;48.764;9.172;2023-04-15T13:52:39;1.83;;;1.73;;
757;SDS011;363;48.764;9.172;2023-04-15T13:55:05;2.37;;;2.17;;
757;SDS011;363;48.764;9.172;2023-04-15T13:57:31;1.80;;;1.70;;
757;SDS011;363;48.764;9.172;2023-04-15T13:59:56;3.27;;;1.80;;
757;SDS011;363;48.764;9.172;2023-04-15T14:02:22;2.13;;;1.93;;
757;SDS011;363;48.764;9.172;2023-04-15T14:04:48;2.60;;;2.10;;
757;SDS011;363;48.764;9.172;2023-04-15T14:07:13;2.47;;;2.27;;
757;SDS011;363;48.764;9.172;2023-04-15T14:09:39;2.10;;;1.57;;
757;SDS011;363;48.764;9.172;2023-04-15T14:12:05;1.83;;;1.47;;
757;SDS011;363;48.764;9.172;2023-04-15T14:14:31;2.47;;;1.87;;
757;SDS011;363;48.764;9.172;2023-04-15T14:16:56;2.53;;;1.70;;
757;SDS011;363;48.764;9.172;2023-04-15T14:19:22;1.73;;;1.63;;
757;SDS011;363;48.764;9.172;2023-04-15T14:21:48;1.75;;;1.65;;
757;SDS011;363;48.764;9.172;2023-04-15T14:24:14;1.90;;;1.50;;
757;SDS011;363;48.764;9.172;2023-04-15T14:26:39;1.63;;;1.23;;
757;SDS011;363;48.764;9.172;2023-04-15T14:29:07;1.40;;;1.30;;
757;SDS011;363;48.764;9.172;2023-04-15T14:31:33;2.40;;;1.20;;
757;SDS011;363;48.764;9.172;2023-04-15T14:33:59;1.60;;;1.40;;
757;SDS011;363;48.764;9.172;2023-04-15T14:36:24;1.80;;;1.70;;
757;SDS011;363;48.764;9.172;2023-04-15T14:38:51;1.60;;;1.50;;
757;SDS011;363;48.764;9.172;2023-04-15T14:41:16;1.87;;;1.77;;
757;SDS011;363;48.764;9.172;2023-04-15T14:43:42;2.20;;;1.70;;
757;SDS011;363;48.764;9.172;2023-04-15T14:46:07;2.53;;;1.70;;
757;SDS011;363;48.764;9.172;2023-04-15T14:48:34;1.80;;;1.42;;
757;SDS011;363;48.764;9.172;2023-04-15T14:51:00;2.23;;;1.80;;
757;SDS011;363;48.764;9.172;2023-04-15T14:53:25;2.00;;;1.50;;
757;SDS011;363;48.764;9.172;2023-04-15T14:55:51;1.70;;;1.60;;
757;SDS011;363;48.764;9.172;2023-04-15T14:58:17;5.20;;;2.30;;
757;SDS011;363;48.764;9.172;2023-04-15T15:00:42;1.87;;;1.70;;
757;SDS011;363;48.764;9.172;2023-04-15T15:03:09;1.70;;;1.48;;
757;SDS011;363;48.764;9.172;2023-04-15T15:05:39;1.83;;;1.73;;
757;SDS011;363;48.764;9.172;2023-04-15T15:08:05;3.38;;;2.10;;
757;SDS011;363;48.764;9.172;2023-04-15T15:10:33;3.40;;;1.65;;
757;SDS011;363;48.764;9.172;2023-04-15T15:13:00;4.82;;;2.42;;
757;SDS011;363;48.764;9.172;2023-04-15T15:15:29;3.35;;;2.03;;
757;SDS011;363;48.764;9.172;2023-04-15T15:17:55;1.77;;;1.67;;
757;SDS011;363;48.764;9.172;2023-04-15T15:20:21;2.47;;;1.80;;
757;SDS011;363;48.764;9.172;2023-04-15T15:22:47;2.05;;;1.83;;
757;SDS011;363;48.764;9.172;2023-04-15T15:25:12;3.80;;;2.10;;
757;SDS011;363;48.764;9.172;2023-04-15T15:27:38;1.93;;;1.50;;
757;SDS011;363;48.764;9.172;2023-04-15T15:30:04;2.97;;;2.10;;
757;SDS011;363;48.764;9.172;2023-04-15T15:32:30;3.22;;;1.98;;
757;SDS011;363;48.764;9.172;2023-04-15T15:34:56;2.03;;;1.83;;
757;SDS011;363;48.764;9.172;2023-04-15T15:37:22;2.13;;;1.93;;
757;SDS011;363;48.764;9.172;2023-04-15T15:39:47;2.60;;;2.40;;
757;SDS011;363;48.764;9.172;2023-04-15T15:42:15;3.95;;;2.85;;
757;SDS011;363;48.764;9.172;2023-04-15T15:44:40;2.60;;;2.33;;
757;SDS011;363;48.764;9.172;2023-04-15T15:47:06;5.10;;;2.50;;
757;SDS011;363;48.764;9.172;2023-04-15T15:49:32;2.53;;;2.33;;
757;SDS011;363;48.764;9.172;2023-04-15T15:51:58;2.47;;;2.28;;
757;SDS011;363;48.764;9.172;2023-04-15T15:54:24;5.07;;;2.30;;
757;SDS011;363;48.764;9.172;2023-04-15T15:56:49;3.53;;;2.70;;
757;SDS011;363;48.764;9.172;2023-04-15T15:59:15;4.27;;;2.43;;
757;SDS011;363;48.764;9.172;2023-04-15T16:01:41;3.80;;;3.40;;
757;SDS011;363;48.764;9.172;2023-04-15T16:04:08;3.05;;;2.20;;
757;SDS011;363;48.764;9.172;2023-04-15T16:06:34;2.65;;;2.30;;
757;SDS011;363;48.764;9.172;2023-04-15T16:09:00;3.93;;;3.50;;
757;SDS011;363;48.764;9.172;2023-04-15T16:11:25;1.80;;;1.70;;
757;SDS011;363;48.764;9.172;2023-04-15T16:13:51;2.43;;;2.20;;